sensor_id;sensor_type;location;lat;lon;timestamp;P1;durP1;ratioP1;P2;durP2;ratioP2
23266;SDS011;11802;53.160;8.214;2023-12-20T00:00:57;9.80;;;1.77;;
23266;SDS011;11802;53.160;8.214;2023-12-20T00:03:23;9.80;;;1.67;;
23266;SDS011;11802;53.160;8.214;2023-12-20T00:05:49;7.00;;;1.50;;
23266;SDS011;11802;53.160;8.214;2023-12-20T00:08:15;11.83;;;2.30;;
23266;SDS011;11802;53.160;8.214;2023-12-20T00:10:41;12.60;;;2.10;;
23266;SDS011;11802;53.160;8.214;2023-12-20T00:13:06;11.33;;;2.07;;
23266;SDS011;11802;53.160;8.214;2023-12-20T00:15:33;12.60;;;2.07;;
23266;SDS011;11802;53.160;8.214;2023-12-20T00:17:59;12.13;;;2.40;;
23266;SDS011;11802;53.160;8.214;2023-12-20T00:20:24;13.67;;;2.33;;
23266;SDS011;11802;53.160;8.214;2023-12-20T00:22:50;7.87;;;1.53;;
23266;SDS011;11802;53.160;8.214;2023-12-20T00:25:15;11.37;;;2.50;;
23266;SDS011;11802;53.160;8.214;2023-12-20T00:27:41;10.33;;;1.83;;
23266;SDS011;11802;53.160;8.214;2023-12-20T00:30:07;10.10;;;1.90;;
23266;SDS011;11802;53.160;8.214;2023-12-20T00:32:34;7.13;;;2.07;;
23266;SDS011;11802;53.160;8.214;2023-12-20T00:35:00;7.90;;;1.83;;
23266;SDS011;11802;53.160;8.214;2023-12-20T00:37:26;11.73;;;1.80;;
23266;SDS011;11802;53.160;8.214;2023-12-20T00:39:52;7.63;;;1.70;;
23266;SDS011;11802;53.160;8.214;2023-12-20T00:42:18;8.90;;;1.70;;
23266;SDS011;11802;53.160;8.214;2023-12-20T00:44:43;7.03;;;1.50;;
23266;SDS011;11802;53.160;8.214;2023-12-20T00:47:09;14.70;;;2.60;;
23266;SDS011;11802;53.160;8.214;2023-12-20T00:49:35;8.40;;;1.73;;
23266;SDS011;11802;53.160;8.214;2023-12-20T00:52:00;11.27;;;1.47;;
23266;SDS011;11802;53.160;8.214;2023-12-20T00:54:26;11.17;;;2.20;;
23266;SDS011;11802;53.160;8.214;2023-12-20T00:56:51;8.10;;;1.83;;
23266;SDS011;11802;53.160;8.214;2023-12-20T00:59:17;7.30;;;1.80;;
23266;SDS011;11802;53.160;8.214;2023-12-20T01:01:43;10.93;;;1.77;;
23266;SDS011;11802;53.160;8.214;2023-12-20T01:04:09;11.40;;;2.20;;
23266;SDS011;11802;53.160;8.214;2023-12-20T01:06:35;9.77;;;2.10;;
23266;SDS011;11802;53.160;8.214;2023-12-20T01:09:00;10.03;;;2.43;;
23266;SDS011;11802;53.160;8.214;2023-12-20T01:11:26;9.93;;;2.20;;
23266;SDS011;11802;53.160;8.214;2023-12-20T01:13:51;11.80;;;1.67;;
23266;SDS011;11802;53.160;8.214;2023-12-20T01:16:17;14.27;;;1.90;;
23266;SDS011;11802;53.160;8.214;2023-12-20T01:18:42;9.27;;;2.23;;
23266;SDS011;11802;53.160;8.214;2023-12-20T01:21:08;9.63;;;1.70;;
23266;SDS011;11802;53.160;8.214;2023-12-20T01:23:34;12.90;;;1.73;;
23266;SDS011;11802;53.160;8.214;2023-12-20T01:25:59;7.27;;;1.20;;
23266;SDS011;11802;53.160;8.214;2023-12-20T01:28:25;9.33;;;1.57;;
23266;SDS011;11802;53.160;8.214;2023-12-20T01:30:51;6.73;;;1.77;;
23266;SDS011;11802;53.160;8.214;2023-12-20T01:33:17;12.17;;;2.07;;
23266;SDS011;11802;53.160;8.214;2023-12-20T01:35:43;6.90;;;1.73;;
23266;SDS011;11802;53.160;8.214;2023-12-20T01:38:08;9.30;;;1.60;;
23266;SDS011;11802;53.160;8.214;2023-12-20T01:40:34;9.40;;;1.73;;
23266;SDS011;11802;53.160;8.214;2023-12-20T01:43:07;7.53;;;1.60;;
23266;SDS011;11802;53.160;8.214;2023-12-20T01:45:34;12.60;;;1.80;;
23266;SDS011;11802;53.160;8.214;2023-12-20T01:47:59;15.00;;;1.70;;
23266;SDS011;11802;53.160;8.214;2023-12-20T01:50:27;12.63;;;1.87;;
23266;SDS011;11802;53.160;8.214;2023-12-20T01:52:54;7.50;;;2.30;;
23266;SDS011;11802;53.160;8.214;2023-12-20T01:55:22;12.70;;;2.13;;
23266;SDS011;11802;53.160;8.214;2023-12-20T01:57:49;6.57;;;1.63;;
23266;SDS011;11802;53.160;8.214;2023-12-20T02:00:15;8.43;;;2.00;;
23266;SDS011;11802;53.160;8.214;2023-12-20T02:02:41;6.77;;;1.60;;
23266;SDS011;11802;53.160;8.214;2023-12-20T02:05:10;11.90;;;2.20;;
23266;SDS011;11802;53.160;8.214;2023-12-20T02:07:36;13.13;;;2.20;;
23266;SDS011;11802;53.160;8.214;2023-12-20T02:10:02;9.83;;;1.73;;
23266;SDS011;11802;53.160;8.214;2023-12-20T02:12:29;9.20;;;1.77;;
23266;SDS011;11802;53.160;8.214;2023-12-20T02:14:54;10.57;;;1.53;;
23266;SDS011;11802;53.160;8.214;2023-12-20T02:17:20;12.90;;;2.37;;
23266;SDS011;11802;53.160;8.214;2023-12-20T02:19:47;11.80;;;1.80;;
23266;SDS011;11802;53.160;8.214;2023-12-20T02:22:12;13.03;;;1.87;;
23266;SDS011;11802;53.160;8.214;2023-12-20T02:24:38;12.20;;;2.00;;
23266;SDS011;11802;53.160;8.214;2023-12-20T02:27:05;8.40;;;1.83;;
23266;SDS011;11802;53.160;8.214;2023-12-20T02:29:35;7.90;;;1.93;;
23266;SDS011;11802;53.160;8.214;2023-12-20T02:32:01;12.03;;;1.93;;
23266;SDS011;11802;53.160;8.214;2023-12-20T02:34:28;6.63;;;1.60;;
23266;SDS011;11802;53.160;8.214;2023-12-20T02:36:53;13.63;;;2.37;;
23266;SDS011;11802;53.160;8.214;2023-12-20T02:39:19;11.67;;;2.10;;
23266;SDS011;11802;53.160;8.214;2023-12-20T02:41:45;12.60;;;2.10;;
23266;SDS011;11802;53.160;8.214;2023-12-20T02:44:11;13.00;;;1.30;;
23266;SDS011;11802;53.160;8.214;2023-12-20T02:46:37;10.07;;;1.80;;
23266;SDS011;11802;53.160;8.214;2023-12-20T02:49:03;14.43;;;1.70;;
23266;SDS011;11802;53.160;8.214;2023-12-20T02:51:28;8.67;;;1.70;;
23266;SDS011;11802;53.160;8.214;2023-12-20T02:53:54;6.57;;;1.53;;
23266;SDS011;11802;53.160;8.214;2023-12-20T02:56:19;6.53;;;1.67;;
23266;SDS011;11802;53.160;8.214;2023-12-20T02:58:45;12.17;;;2.50;;
23266;SDS011;11802;53.160;8.214;2023-12-20T03:01:10;14.13;;;2.13;;
23266;SDS011;11802;53.160;8.214;2023-12-20T03:03:36;10.23;;;1.83;;
23266;SDS011;11802;53.160;8.214;2023-12-20T03:06:01;11.60;;;2.00;;
23266;SDS011;11802;53.160;8.214;2023-12-20T03:08:27;13.03;;;2.73;;
23266;SDS011;11802;53.160;8.214;2023-12-20T03:10:52;8.13;;;1.70;;
23266;SDS011;11802;53.160;8.214;2023-12-20T03:13:18;16.60;;;2.70;;
23266;SDS011;11802;53.160;8.214;2023-12-20T03:15:44;10.73;;;2.03;;
23266;SDS011;11802;53.160;8.214;2023-12-20T03:18:10;14.47;;;2.23;;
23266;SDS011;11802;53.160;8.214;2023-12-20T03:20:36;19.37;;;2.27;;
23266;SDS011;11802;53.160;8.214;2023-12-20T03:23:01;8.43;;;1.80;;
23266;SDS011;11802;53.160;8.214;2023-12-20T03:25:27;10.00;;;2.20;;
23266;SDS011;11802;53.160;8.214;2023-12-20T03:27:53;12.70;;;2.43;;
23266;SDS011;11802;53.160;8.214;2023-12-20T03:30:18;12.43;;;2.47;;
23266;SDS011;11802;53.160;8.214;2023-12-20T03:32:44;14.40;;;2.17;;
23266;SDS011;11802;53.160;8.214;2023-12-20T03:35:10;14.33;;;2.00;;
23266;SDS011;11802;53.160;8.214;2023-12-20T03:37:36;14.90;;;2.67;;
23266;SDS011;11802;53.160;8.214;2023-12-20T03:40:02;16.33;;;2.73;;
23266;SDS011;11802;53.160;8.214;2023-12-20T03:42:28;11.40;;;1.97;;
23266;SDS011;11802;53.160;8.214;2023-12-20T03:44:53;13.13;;;2.00;;
23266;SDS011;11802;53.160;8.214;2023-12-20T03:47:19;11.47;;;1.90;;
23266;SDS011;11802;53.160;8.214;2023-12-20T03:49:45;12.60;;;1.90;;
23266;SDS011;11802;53.160;8.214;2023-12-20T03:52:10;12.33;;;2.07;;
23266;SDS011;11802;53.160;8.214;2023-12-20T03:54:36;11.50;;;2.37;;
23266;SDS011;11802;53.160;8.214;2023-12-20T03:57:01;11.50;;;1.70;;
23266;SDS011;11802;53.160;8.214;2023-12-20T03:59:27;16.23;;;1.77;;
23266;SDS011;11802;53.160;8.214;2023-12-20T04:01:52;11.27;;;1.93;;
23266;SDS011;11802;53.160;8.214;2023-12-20T04:04:18;12.93;;;1.80;;
23266;SDS011;11802;53.160;8.214;2023-12-20T04:06:44;12.63;;;2.43;;
23266;SDS011;11802;53.160;8.214;2023-12-20T04:09:09;15.53;;;2.63;;
23266;SDS011;11802;53.160;8.214;2023-12-20T04:11:36;13.43;;;2.27;;
23266;SDS011;11802;53.160;8.214;2023-12-20T04:14:01;11.07;;;1.90;;
23266;SDS011;11802;53.160;8.214;2023-12-20T04:16:27;13.67;;;2.33;;
23266;SDS011;11802;53.160;8.214;2023-12-20T04:18:53;14.70;;;2.60;;
23266;SDS011;11802;53.160;8.214;2023-12-20T04:21:18;11.77;;;2.50;;
23266;SDS011;11802;53.160;8.214;2023-12-20T04:23:44;14.17;;;2.33;;
23266;SDS011;11802;53.160;8.214;2023-12-20T04:26:10;14.10;;;2.47;;
23266;SDS011;11802;53.160;8.214;2023-12-20T04:28:35;12.10;;;2.63;;
23266;SDS011;11802;53.160;8.214;2023-12-20T04:31:01;12.33;;;2.27;;
23266;SDS011;11802;53.160;8.214;2023-12-20T04:33:26;12.43;;;2.20;;
23266;SDS011;11802;53.160;8.214;2023-12-20T04:35:52;15.43;;;2.80;;
23266;SDS011;11802;53.160;8.214;2023-12-20T04:38:17;11.67;;;2.17;;
23266;SDS011;11802;53.160;8.214;2023-12-20T04:40:43;13.17;;;2.43;;
23266;SDS011;11802;53.160;8.214;2023-12-20T04:43:08;15.67;;;2.60;;
23266;SDS011;11802;53.160;8.214;2023-12-20T04:45:34;15.70;;;2.60;;
23266;SDS011;11802;53.160;8.214;2023-12-20T04:48:01;13.73;;;2.07;;
23266;SDS011;11802;53.160;8.214;2023-12-20T04:50:27;14.33;;;2.67;;
23266;SDS011;11802;53.160;8.214;2023-12-20T04:52:52;19.43;;;3.03;;
23266;SDS011;11802;53.160;8.214;2023-12-20T04:55:18;9.90;;;2.13;;
23266;SDS011;11802;53.160;8.214;2023-12-20T04:57:44;13.47;;;2.67;;
23266;SDS011;11802;53.160;8.214;2023-12-20T05:00:09;15.33;;;2.77;;
23266;SDS011;11802;53.160;8.214;2023-12-20T05:02:35;16.33;;;3.27;;
23266;SDS011;11802;53.160;8.214;2023-12-20T05:05:01;13.87;;;3.03;;
23266;SDS011;11802;53.160;8.214;2023-12-20T05:07:27;10.27;;;2.30;;
23266;SDS011;11802;53.160;8.214;2023-12-20T05:09:53;11.43;;;2.00;;
23266;SDS011;11802;53.160;8.214;2023-12-20T05:12:18;18.33;;;2.47;;
23266;SDS011;11802;53.160;8.214;2023-12-20T05:14:44;15.17;;;2.50;;
23266;SDS011;11802;53.160;8.214;2023-12-20T05:17:10;14.83;;;2.57;;
23266;SDS011;11802;53.160;8.214;2023-12-20T05:19:36;11.37;;;2.40;;
23266;SDS011;11802;53.160;8.214;2023-12-20T05:22:02;15.17;;;2.80;;
23266;SDS011;11802;53.160;8.214;2023-12-20T05:24:27;15.83;;;2.57;;
23266;SDS011;11802;53.160;8.214;2023-12-20T05:26:53;15.70;;;2.77;;
23266;SDS011;11802;53.160;8.214;2023-12-20T05:29:19;12.13;;;1.87;;
23266;SDS011;11802;53.160;8.214;2023-12-20T05:31:44;15.87;;;2.90;;
23266;SDS011;11802;53.160;8.214;2023-12-20T05:34:10;16.63;;;3.70;;
23266;SDS011;11802;53.160;8.214;2023-12-20T05:36:36;17.20;;;2.77;;
23266;SDS011;11802;53.160;8.214;2023-12-20T05:39:02;16.10;;;2.77;;
23266;SDS011;11802;53.160;8.214;2023-12-20T05:41:30;19.30;;;3.13;;
23266;SDS011;11802;53.160;8.214;2023-12-20T05:43:56;15.53;;;2.70;;
23266;SDS011;11802;53.160;8.214;2023-12-20T05:46:23;13.80;;;3.27;;
23266;SDS011;11802;53.160;8.214;2023-12-20T05:48:49;19.83;;;3.17;;
23266;SDS011;11802;53.160;8.214;2023-12-20T05:51:16;13.93;;;2.80;;
23266;SDS011;11802;53.160;8.214;2023-12-20T05:53:42;16.43;;;2.97;;
23266;SDS011;11802;53.160;8.214;2023-12-20T05:56:07;18.80;;;3.03;;
23266;SDS011;11802;53.160;8.214;2023-12-20T05:58:33;17.87;;;3.00;;
23266;SDS011;11802;53.160;8.214;2023-12-20T06:00:58;17.37;;;2.70;;
23266;SDS011;11802;53.160;8.214;2023-12-20T06:03:24;18.77;;;3.73;;
23266;SDS011;11802;53.160;8.214;2023-12-20T06:05:50;23.07;;;3.53;;
23266;SDS011;11802;53.160;8.214;2023-12-20T06:08:15;19.97;;;2.90;;
23266;SDS011;11802;53.160;8.214;2023-12-20T06:10:41;17.27;;;3.00;;
23266;SDS011;11802;53.160;8.214;2023-12-20T06:13:06;22.33;;;3.10;;
23266;SDS011;11802;53.160;8.214;2023-12-20T06:15:35;14.43;;;2.70;;
23266;SDS011;11802;53.160;8.214;2023-12-20T06:18:00;18.93;;;3.47;;
23266;SDS011;11802;53.160;8.214;2023-12-20T06:20:26;24.10;;;3.40;;
23266;SDS011;11802;53.160;8.214;2023-12-20T06:22:52;21.33;;;3.60;;
23266;SDS011;11802;53.160;8.214;2023-12-20T06:25:17;19.70;;;3.50;;
23266;SDS011;11802;53.160;8.214;2023-12-20T06:27:43;14.50;;;3.57;;
23266;SDS011;11802;53.160;8.214;2023-12-20T06:30:09;15.83;;;3.60;;
23266;SDS011;11802;53.160;8.214;2023-12-20T06:32:35;13.30;;;2.50;;
23266;SDS011;11802;53.160;8.214;2023-12-20T06:35:00;19.83;;;3.23;;
23266;SDS011;11802;53.160;8.214;2023-12-20T06:37:26;14.70;;;3.40;;
23266;SDS011;11802;53.160;8.214;2023-12-20T06:39:52;17.30;;;3.37;;
23266;SDS011;11802;53.160;8.214;2023-12-20T06:42:17;18.47;;;3.33;;
23266;SDS011;11802;53.160;8.214;2023-12-20T06:44:43;16.90;;;3.40;;
23266;SDS011;11802;53.160;8.214;2023-12-20T06:47:08;15.90;;;3.87;;
23266;SDS011;11802;53.160;8.214;2023-12-20T06:49:34;23.30;;;3.23;;
23266;SDS011;11802;53.160;8.214;2023-12-20T06:51:59;18.07;;;3.30;;
23266;SDS011;11802;53.160;8.214;2023-12-20T06:54:25;19.63;;;3.67;;
23266;SDS011;11802;53.160;8.214;2023-12-20T06:56:50;23.77;;;3.87;;
23266;SDS011;11802;53.160;8.214;2023-12-20T06:59:16;20.87;;;3.10;;
23266;SDS011;11802;53.160;8.214;2023-12-20T07:01:41;16.43;;;3.23;;
23266;SDS011;11802;53.160;8.214;2023-12-20T07:04:08;20.57;;;3.27;;
23266;SDS011;11802;53.160;8.214;2023-12-20T07:06:33;16.33;;;3.07;;
23266;SDS011;11802;53.160;8.214;2023-12-20T07:08:59;16.40;;;3.23;;
23266;SDS011;11802;53.160;8.214;2023-12-20T07:11:25;20.23;;;4.00;;
23266;SDS011;11802;53.160;8.214;2023-12-20T07:13:51;17.27;;;3.50;;
23266;SDS011;11802;53.160;8.214;2023-12-20T07:16:16;22.27;;;4.03;;
23266;SDS011;11802;53.160;8.214;2023-12-20T07:18:42;23.63;;;3.57;;
23266;SDS011;11802;53.160;8.214;2023-12-20T07:21:08;21.10;;;3.47;;
23266;SDS011;11802;53.160;8.214;2023-12-20T07:23:33;20.10;;;4.03;;
23266;SDS011;11802;53.160;8.214;2023-12-20T07:25:59;22.57;;;4.63;;
23266;SDS011;11802;53.160;8.214;2023-12-20T07:28:24;24.33;;;4.23;;
23266;SDS011;11802;53.160;8.214;2023-12-20T07:30:50;19.23;;;4.10;;
23266;SDS011;11802;53.160;8.214;2023-12-20T07:33:15;26.57;;;4.30;;
23266;SDS011;11802;53.160;8.214;2023-12-20T07:35:41;19.43;;;3.20;;
23266;SDS011;11802;53.160;8.214;2023-12-20T07:38:07;19.83;;;4.17;;
23266;SDS011;11802;53.160;8.214;2023-12-20T07:40:32;19.07;;;3.90;;
23266;SDS011;11802;53.160;8.214;2023-12-20T07:42:58;21.70;;;3.67;;
23266;SDS011;11802;53.160;8.214;2023-12-20T07:45:23;21.73;;;4.27;;
23266;SDS011;11802;53.160;8.214;2023-12-20T07:47:49;20.50;;;3.23;;
23266;SDS011;11802;53.160;8.214;2023-12-20T07:50:16;21.00;;;4.23;;
23266;SDS011;11802;53.160;8.214;2023-12-20T07:52:42;19.80;;;4.53;;
23266;SDS011;11802;53.160;8.214;2023-12-20T07:55:08;20.50;;;3.57;;
23266;SDS011;11802;53.160;8.214;2023-12-20T07:57:33;14.77;;;3.07;;
23266;SDS011;11802;53.160;8.214;2023-12-20T07:59:59;15.03;;;3.63;;
23266;SDS011;11802;53.160;8.214;2023-12-20T08:02:24;15.97;;;3.97;;
23266;SDS011;11802;53.160;8.214;2023-12-20T08:04:50;22.17;;;3.80;;
23266;SDS011;11802;53.160;8.214;2023-12-20T08:07:15;19.13;;;3.40;;
23266;SDS011;11802;53.160;8.214;2023-12-20T08:09:41;13.03;;;3.03;;
23266;SDS011;11802;53.160;8.214;2023-12-20T08:12:08;17.33;;;2.73;;
23266;SDS011;11802;53.160;8.214;2023-12-20T08:14:34;16.00;;;3.50;;
23266;SDS011;11802;53.160;8.214;2023-12-20T08:17:00;17.57;;;3.50;;
23266;SDS011;11802;53.160;8.214;2023-12-20T08:19:25;18.30;;;3.60;;
23266;SDS011;11802;53.160;8.214;2023-12-20T08:21:51;18.10;;;3.30;;
23266;SDS011;11802;53.160;8.214;2023-12-20T08:24:16;12.93;;;3.53;;
23266;SDS011;11802;53.160;8.214;2023-12-20T08:26:42;24.90;;;4.07;;
23266;SDS011;11802;53.160;8.214;2023-12-20T08:29:07;20.07;;;3.40;;
23266;SDS011;11802;53.160;8.214;2023-12-20T08:31:33;19.83;;;4.03;;
23266;SDS011;11802;53.160;8.214;2023-12-20T08:34:01;16.60;;;3.67;;
23266;SDS011;11802;53.160;8.214;2023-12-20T08:36:27;19.90;;;4.00;;
23266;SDS011;11802;53.160;8.214;2023-12-20T08:38:55;20.63;;;3.97;;
23266;SDS011;11802;53.160;8.214;2023-12-20T08:41:21;16.70;;;3.70;;
23266;SDS011;11802;53.160;8.214;2023-12-20T08:43:47;21.93;;;3.37;;
23266;SDS011;11802;53.160;8.214;2023-12-20T08:46:13;17.50;;;3.30;;
23266;SDS011;11802;53.160;8.214;2023-12-20T08:48:40;16.43;;;3.77;;
23266;SDS011;11802;53.160;8.214;2023-12-20T08:51:05;19.87;;;3.77;;
23266;SDS011;11802;53.160;8.214;2023-12-20T08:53:34;27.33;;;4.50;;
23266;SDS011;11802;53.160;8.214;2023-12-20T08:55:59;19.70;;;3.53;;
23266;SDS011;11802;53.160;8.214;2023-12-20T08:58:26;16.50;;;4.00;;
23266;SDS011;11802;53.160;8.214;2023-12-20T09:00:53;18.60;;;3.77;;
23266;SDS011;11802;53.160;8.214;2023-12-20T09:03:18;19.03;;;3.50;;
23266;SDS011;11802;53.160;8.214;2023-12-20T09:05:44;23.07;;;3.70;;
23266;SDS011;11802;53.160;8.214;2023-12-20T09:08:09;13.97;;;3.70;;
23266;SDS011;11802;53.160;8.214;2023-12-20T09:10:35;17.60;;;3.30;;
23266;SDS011;11802;53.160;8.214;2023-12-20T09:13:02;15.73;;;3.53;;
23266;SDS011;11802;53.160;8.214;2023-12-20T09:15:27;20.13;;;4.10;;
23266;SDS011;11802;53.160;8.214;2023-12-20T09:17:55;21.00;;;3.93;;
23266;SDS011;11802;53.160;8.214;2023-12-20T09:20:20;17.97;;;3.43;;
23266;SDS011;11802;53.160;8.214;2023-12-20T09:22:48;9.17;;;1.87;;
23266;SDS011;11802;53.160;8.214;2023-12-20T09:25:14;6.97;;;1.30;;
23266;SDS011;11802;53.160;8.214;2023-12-20T09:27:41;3.87;;;1.00;;
23266;SDS011;11802;53.160;8.214;2023-12-20T09:30:06;6.07;;;1.00;;
23266;SDS011;11802;53.160;8.214;2023-12-20T09:32:32;7.53;;;1.10;;
23266;SDS011;11802;53.160;8.214;2023-12-20T09:34:58;3.93;;;1.10;;
23266;SDS011;11802;53.160;8.214;2023-12-20T09:37:26;6.50;;;1.17;;
23266;SDS011;11802;53.160;8.214;2023-12-20T09:39:52;6.83;;;1.47;;
23266;SDS011;11802;53.160;8.214;2023-12-20T09:42:21;6.77;;;1.40;;
23266;SDS011;11802;53.160;8.214;2023-12-20T09:44:52;7.17;;;1.20;;
23266;SDS011;11802;53.160;8.214;2023-12-20T09:47:19;6.73;;;1.13;;
23266;SDS011;11802;53.160;8.214;2023-12-20T09:49:48;3.07;;;0.80;;
23266;SDS011;11802;53.160;8.214;2023-12-20T09:52:15;5.33;;;1.10;;
23266;SDS011;11802;53.160;8.214;2023-12-20T09:54:43;3.77;;;0.83;;
23266;SDS011;11802;53.160;8.214;2023-12-20T09:57:09;5.70;;;1.00;;
23266;SDS011;11802;53.160;8.214;2023-12-20T09:59:35;7.23;;;0.83;;
23266;SDS011;11802;53.160;8.214;2023-12-20T10:02:00;5.00;;;1.27;;
23266;SDS011;11802;53.160;8.214;2023-12-20T10:04:28;3.87;;;0.90;;
23266;SDS011;11802;53.160;8.214;2023-12-20T10:07:01;3.33;;;1.00;;
23266;SDS011;11802;53.160;8.214;2023-12-20T10:09:28;3.83;;;1.03;;
23266;SDS011;11802;53.160;8.214;2023-12-20T10:11:56;7.90;;;1.50;;
23266;SDS011;11802;53.160;8.214;2023-12-20T10:14:23;6.37;;;1.50;;
23266;SDS011;11802;53.160;8.214;2023-12-20T10:16:49;8.83;;;1.10;;
23266;SDS011;11802;53.160;8.214;2023-12-20T10:19:16;6.80;;;1.27;;
23266;SDS011;11802;53.160;8.214;2023-12-20T10:21:43;8.70;;;2.90;;
23266;SDS011;11802;53.160;8.214;2023-12-20T10:24:09;7.00;;;3.13;;
23266;SDS011;11802;53.160;8.214;2023-12-20T10:26:42;7.13;;;1.90;;
23266;SDS011;11802;53.160;8.214;2023-12-20T10:29:07;9.90;;;2.03;;
23266;SDS011;11802;53.160;8.214;2023-12-20T10:31:35;8.07;;;3.07;;
23266;SDS011;11802;53.160;8.214;2023-12-20T10:34:03;4.33;;;1.83;;
23266;SDS011;11802;53.160;8.214;2023-12-20T10:36:29;9.93;;;3.03;;
23266;SDS011;11802;53.160;8.214;2023-12-20T10:38:57;6.77;;;1.47;;
23266;SDS011;11802;53.160;8.214;2023-12-20T10:41:27;7.07;;;1.20;;
23266;SDS011;11802;53.160;8.214;2023-12-20T10:43:58;6.70;;;1.77;;
23266;SDS011;11802;53.160;8.214;2023-12-20T10:46:28;8.37;;;1.13;;
23266;SDS011;11802;53.160;8.214;2023-12-20T10:48:55;6.80;;;1.10;;
23266;SDS011;11802;53.160;8.214;2023-12-20T10:51:24;10.77;;;1.73;;
23266;SDS011;11802;53.160;8.214;2023-12-20T10:53:55;6.40;;;1.50;;
23266;SDS011;11802;53.160;8.214;2023-12-20T10:56:21;8.83;;;1.30;;
23266;SDS011;11802;53.160;8.214;2023-12-20T10:58:48;6.90;;;1.23;;
23266;SDS011;11802;53.160;8.214;2023-12-20T11:01:15;5.13;;;1.30;;
23266;SDS011;11802;53.160;8.214;2023-12-20T11:03:44;8.20;;;1.47;;
23266;SDS011;11802;53.160;8.214;2023-12-20T11:06:19;7.60;;;1.40;;
23266;SDS011;11802;53.160;8.214;2023-12-20T11:11:40;7.10;;;1.60;;
23266;SDS011;11802;53.160;8.214;2023-12-20T11:14:27;8.00;;;1.40;;
23266;SDS011;11802;53.160;8.214;2023-12-20T11:17:09;10.10;;;1.50;;
23266;SDS011;11802;53.160;8.214;2023-12-20T11:19:38;4.60;;;1.27;;
23266;SDS011;11802;53.160;8.214;2023-12-20T11:22:21;7.73;;;1.20;;
23266;SDS011;11802;53.160;8.214;2023-12-20T11:24:47;8.13;;;1.10;;
23266;SDS011;11802;53.160;8.214;2023-12-20T11:27:13;7.30;;;1.30;;
23266;SDS011;11802;53.160;8.214;2023-12-20T11:29:39;8.87;;;1.57;;
23266;SDS011;11802;53.160;8.214;2023-12-20T11:34:59;7.00;;;1.40;;
23266;SDS011;11802;53.160;8.214;2023-12-20T11:37:41;12.97;;;1.63;;
23266;SDS011;11802;53.160;8.214;2023-12-20T11:40:12;6.37;;;1.90;;
23266;SDS011;11802;53.160;8.214;2023-12-20T11:42:44;9.47;;;1.60;;
23266;SDS011;11802;53.160;8.214;2023-12-20T11:45:11;11.90;;;1.80;;
23266;SDS011;11802;53.160;8.214;2023-12-20T11:47:40;8.53;;;1.80;;
23266;SDS011;11802;53.160;8.214;2023-12-20T11:50:12;9.10;;;1.67;;
23266;SDS011;11802;53.160;8.214;2023-12-20T11:52:38;9.30;;;1.60;;
23266;SDS011;11802;53.160;8.214;2023-12-20T11:55:03;9.03;;;1.60;;
23266;SDS011;11802;53.160;8.214;2023-12-20T11:57:30;15.77;;;2.40;;
23266;SDS011;11802;53.160;8.214;2023-12-20T11:59:56;13.87;;;1.87;;
23266;SDS011;11802;53.160;8.214;2023-12-20T12:02:21;9.37;;;2.10;;
23266;SDS011;11802;53.160;8.214;2023-12-20T12:04:49;9.97;;;1.93;;
23266;SDS011;11802;53.160;8.214;2023-12-20T12:07:15;15.80;;;2.30;;
23266;SDS011;11802;53.160;8.214;2023-12-20T12:09:41;12.20;;;2.07;;
23266;SDS011;11802;53.160;8.214;2023-12-20T12:12:08;9.93;;;1.90;;
23266;SDS011;11802;53.160;8.214;2023-12-20T12:14:33;11.40;;;1.60;;
23266;SDS011;11802;53.160;8.214;2023-12-20T12:17:01;10.07;;;2.47;;
23266;SDS011;11802;53.160;8.214;2023-12-20T12:19:27;14.80;;;2.77;;
23266;SDS011;11802;53.160;8.214;2023-12-20T12:22:10;15.90;;;2.63;;
23266;SDS011;11802;53.160;8.214;2023-12-20T12:24:41;11.07;;;2.03;;
23266;SDS011;11802;53.160;8.214;2023-12-20T12:27:08;8.37;;;1.80;;
23266;SDS011;11802;53.160;8.214;2023-12-20T12:29:34;7.87;;;1.63;;
23266;SDS011;11802;53.160;8.214;2023-12-20T12:32:00;17.07;;;2.83;;
23266;SDS011;11802;53.160;8.214;2023-12-20T12:34:29;15.70;;;1.93;;
23266;SDS011;11802;53.160;8.214;2023-12-20T12:36:55;11.70;;;2.30;;
23266;SDS011;11802;53.160;8.214;2023-12-20T12:39:22;6.57;;;1.63;;
23266;SDS011;11802;53.160;8.214;2023-12-20T12:41:50;8.63;;;1.60;;
23266;SDS011;11802;53.160;8.214;2023-12-20T12:44:15;9.00;;;2.00;;
23266;SDS011;11802;53.160;8.214;2023-12-20T12:46:42;13.60;;;2.00;;
23266;SDS011;11802;53.160;8.214;2023-12-20T12:49:08;11.47;;;2.27;;
23266;SDS011;11802;53.160;8.214;2023-12-20T12:51:34;10.23;;;2.03;;
23266;SDS011;11802;53.160;8.214;2023-12-20T12:54:00;14.13;;;2.23;;
23266;SDS011;11802;53.160;8.214;2023-12-20T12:56:25;13.10;;;2.80;;
23266;SDS011;11802;53.160;8.214;2023-12-20T12:58:51;10.13;;;2.63;;
23266;SDS011;11802;53.160;8.214;2023-12-20T13:01:16;17.13;;;3.57;;
23266;SDS011;11802;53.160;8.214;2023-12-20T13:03:42;18.50;;;5.37;;
23266;SDS011;11802;53.160;8.214;2023-12-20T13:06:08;20.23;;;4.17;;
23266;SDS011;11802;53.160;8.214;2023-12-20T13:08:34;14.40;;;2.43;;
23266;SDS011;11802;53.160;8.214;2023-12-20T13:10:59;13.77;;;3.67;;
23266;SDS011;11802;53.160;8.214;2023-12-20T13:13:26;11.93;;;2.90;;
23266;SDS011;11802;53.160;8.214;2023-12-20T13:15:52;15.20;;;2.40;;
23266;SDS011;11802;53.160;8.214;2023-12-20T13:18:20;15.10;;;2.40;;
23266;SDS011;11802;53.160;8.214;2023-12-20T13:20:46;18.80;;;3.20;;
23266;SDS011;11802;53.160;8.214;2023-12-20T13:23:12;16.87;;;3.67;;
23266;SDS011;11802;53.160;8.214;2023-12-20T13:25:37;14.23;;;2.77;;
23266;SDS011;11802;53.160;8.214;2023-12-20T13:28:04;15.07;;;3.33;;
23266;SDS011;11802;53.160;8.214;2023-12-20T13:30:30;13.23;;;2.77;;
23266;SDS011;11802;53.160;8.214;2023-12-20T13:32:55;18.60;;;3.00;;
23266;SDS011;11802;53.160;8.214;2023-12-20T13:35:21;17.80;;;4.53;;
23266;SDS011;11802;53.160;8.214;2023-12-20T13:37:47;12.97;;;3.57;;
23266;SDS011;11802;53.160;8.214;2023-12-20T13:40:12;13.33;;;3.13;;
23266;SDS011;11802;53.160;8.214;2023-12-20T13:42:40;10.27;;;2.70;;
23266;SDS011;11802;53.160;8.214;2023-12-20T13:45:07;16.60;;;3.27;;
23266;SDS011;11802;53.160;8.214;2023-12-20T13:47:33;17.53;;;3.13;;
23266;SDS011;11802;53.160;8.214;2023-12-20T13:49:59;8.60;;;2.23;;
23266;SDS011;11802;53.160;8.214;2023-12-20T13:52:24;12.63;;;2.50;;
23266;SDS011;11802;53.160;8.214;2023-12-20T13:54:50;13.00;;;2.50;;
23266;SDS011;11802;53.160;8.214;2023-12-20T13:57:15;15.60;;;3.70;;
23266;SDS011;11802;53.160;8.214;2023-12-20T13:59:41;13.97;;;3.50;;
23266;SDS011;11802;53.160;8.214;2023-12-20T14:02:09;16.47;;;2.97;;
23266;SDS011;11802;53.160;8.214;2023-12-20T14:04:38;15.93;;;2.67;;
23266;SDS011;11802;53.160;8.214;2023-12-20T14:07:04;11.63;;;2.63;;
23266;SDS011;11802;53.160;8.214;2023-12-20T14:09:32;12.00;;;2.60;;
23266;SDS011;11802;53.160;8.214;2023-12-20T14:11:58;14.57;;;2.30;;
23266;SDS011;11802;53.160;8.214;2023-12-20T14:14:24;13.17;;;2.57;;
23266;SDS011;11802;53.160;8.214;2023-12-20T14:16:49;8.97;;;2.37;;
23266;SDS011;11802;53.160;8.214;2023-12-20T14:19:16;7.83;;;2.10;;
23266;SDS011;11802;53.160;8.214;2023-12-20T14:21:41;12.30;;;2.33;;
23266;SDS011;11802;53.160;8.214;2023-12-20T14:24:07;13.80;;;2.73;;
23266;SDS011;11802;53.160;8.214;2023-12-20T14:26:33;15.80;;;3.07;;
23266;SDS011;11802;53.160;8.214;2023-12-20T14:28:58;15.00;;;2.57;;
23266;SDS011;11802;53.160;8.214;2023-12-20T14:31:24;12.77;;;2.40;;
23266;SDS011;11802;53.160;8.214;2023-12-20T14:33:50;13.63;;;1.80;;
23266;SDS011;11802;53.160;8.214;2023-12-20T14:36:18;8.47;;;1.90;;
23266;SDS011;11802;53.160;8.214;2023-12-20T14:38:45;10.73;;;2.57;;